Time;durP1;ratioP1;P1;durP2;ratioP2;P2;SDS_P1;SDS_P2;PMS_P1;PMS_P2;Temp;Humidity;BMP_temperature;BMP_pressure;BME280_temperature;BME280_humidity;BME280_pressure;Samples;Min_cycle;Max_cycle;Signal;HPM_P1;HPM_P2
2022/09/03 00:00:55;;;;;;;1.10;1.02;;;19.30;91.50;;;;;;5055004;28;20045;-33
2022/09/03 00:03:30;;;;;;;4.28;1.23;;;19.20;91.60;;;;;;5064764;28;20461;-33
2022/09/03 00:06:14;;;;;;;2.67;1.02;;;19.20;91.80;;;;;;5062840;28;20039;-34
2022/09/03 00:09:06;;;;;;;1.45;1.35;;;19.10;91.80;;;;;;5062946;28;20055;-34
2022/09/03 00:12:06;;;;;;;1.55;1.17;;;19.10;91.80;;;;;;5051662;28;20488;-29
2022/09/03 00:14:41;;;;;;;1.73;1.00;;;19.00;91.80;;;;;;5058351;28;20555;-36
2022/09/03 00:17:17;;;;;;;1.10;1.00;;;19.00;91.80;;;;;;5060797;28;20094;-35
2022/09/03 00:19:57;;;;;;;4.07;0.93;;;19.00;91.90;;;;;;5064495;28;20087;-33
2022/09/03 00:22:38;;;;;;;3.03;1.50;;;19.00;91.80;;;;;;5057894;28;20604;-37
2022/09/03 00:25:11;;;;;;;1.33;1.15;;;19.00;92.00;;;;;;5063078;28;20027;-31
2022/09/03 00:27:40;;;;;;;1.92;1.10;;;19.00;91.90;;;;;;5055489;28;20561;-35
2022/09/03 00:30:12;;;;;;;1.58;1.08;;;19.00;92.00;;;;;;5058150;28;20032;-33
2022/09/03 00:32:51;;;;;;;1.98;1.00;;;18.90;92.10;;;;;;5060779;28;20025;-49
2022/09/03 00:35:25;;;;;;;1.42;1.00;;;18.90;92.20;;;;;;5062297;28;20017;-35
2022/09/03 00:37:52;;;;;;;2.88;1.25;;;18.90;92.20;;;;;;5060279;28;20028;-37
2022/09/03 00:40:27;;;;;;;1.33;1.08;;;18.80;92.20;;;;;;5066948;28;20430;-39
2022/09/03 00:43:21;;;;;;;1.20;1.10;;;18.80;92.20;;;;;;5061083;28;20040;-37
2022/09/03 00:46:04;;;;;;;1.58;1.20;;;18.80;92.20;;;;;;5061269;28;20099;-38
2022/09/03 00:48:43;;;;;;;1.30;1.13;;;18.80;92.20;;;;;;5061636;28;20025;-39
2022/09/03 00:51:22;;;;;;;1.38;1.27;;;18.80;92.30;;;;;;5065995;28;20029;-38
2022/09/03 00:54:05;;;;;;;0.73;0.73;;;18.80;92.60;;;;;;5065951;28;20537;-38
2022/09/03 00:56:33;;;;;;;4.20;1.30;;;18.70;92.50;;;;;;5064597;28;20041;-41
2022/09/03 00:59:17;;;;;;;1.00;1.00;;;18.80;92.30;;;;;;5064676;28;20103;-53
2022/09/03 01:02:11;;;;;;;1.77;0.90;;;18.80;92.40;;;;;;5061577;28;20420;-36
2022/09/03 01:04:39;;;;;;;3.85;1.35;;;18.70;92.80;;;;;;5061391;28;20051;-38
2022/09/03 01:07:34;;;;;;;6.10;1.20;;;18.70;92.40;;;;;;5064965;28;20067;-38
2022/09/03 01:10:26;;;;;;;2.03;1.30;;;18.70;92.50;;;;;;5057086;28;20481;-38
2022/09/03 01:12:54;;;;;;;2.08;0.88;;;18.70;92.30;;;;;;5058604;28;20082;-35
2022/09/03 01:15:44;;;;;;;1.85;1.40;;;18.80;92.20;;;;;;5059270;28;20028;-36
2022/09/03 01:18:22;;;;;;;5.57;1.00;;;18.80;92.20;;;;;;5063526;28;20029;-54
2022/09/03 01:21:37;;;;;;;2.03;0.90;;;19.00;92.00;;;;;;5058382;28;20033;-40
2022/09/03 01:24:31;;;;;;;1.38;1.23;;;19.00;92.20;;;;;;5060946;28;20206;-40
2022/09/03 01:27:17;;;;;;;1.02;1.00;;;19.00;92.00;;;;;;5054583;28;20021;-37
2022/09/03 01:29:57;;;;;;;5.43;0.90;;;19.00;92.00;;;;;;5062590;28;20132;-35
2022/09/03 01:32:52;;;;;;;6.13;1.20;;;19.10;91.90;;;;;;5057163;28;20017;-35
2022/09/03 01:35:26;;;;;;;1.65;1.05;;;19.10;91.90;;;;;;5041724;28;20032;-38
2022/09/03 01:37:52;;;;;;;1.00;0.90;;;19.10;91.90;;;;;;5057421;28;20509;-36
2022/09/03 01:40:35;;;;;;;1.02;1.00;;;19.10;91.90;;;;;;5063305;28;20111;-38
2022/09/03 01:43:24;;;;;;;1.40;1.25;;;19.10;92.20;;;;;;5054317;28;20025;-39
2022/09/03 01:45:58;;;;;;;1.35;1.25;;;19.10;92.00;;;;;;5059980;28;20476;-32
2022/09/03 01:48:52;;;;;;;3.97;0.98;;;19.10;92.00;;;;;;5057916;28;20483;-34
2022/09/03 01:51:21;;;;;;;6.93;1.45;;;19.10;92.00;;;;;;5061428;28;20159;-35
2022/09/03 01:54:20;;;;;;;3.92;1.00;;;19.10;91.90;;;;;;5059277;28;20093;-33
2022/09/03 01:57:08;;;;;;;1.13;1.05;;;19.10;91.90;;;;;;5057850;28;20044;-40
2022/09/03 02:00:12;;;;;;;1.38;1.05;;;19.10;92.20;;;;;;5062010;28;20024;-53
2022/09/03 02:02:43;;;;;;;1.10;1.00;;;19.10;92.00;;;;;;5051577;28;20552;-30
2022/09/03 02:05:13;;;;;;;1.85;1.38;;;19.10;92.00;;;;;;5060958;28;20106;-39
2022/09/03 02:07:48;;;;;;;3.88;1.27;;;19.10;92.00;;;;;;5062725;28;20108;-34
2022/09/03 02:10:17;;;;;;;3.42;1.55;;;19.00;92.20;;;;;;5059200;28;20039;-30
2022/09/03 02:12:53;;;;;;;4.68;1.23;;;19.00;92.10;;;;;;5059712;28;20021;-36
2022/09/03 02:15:22;;;;;;;7.20;0.90;;;19.00;92.20;;;;;;5057840;28;20496;-32
2022/09/03 02:17:50;;;;;;;1.88;1.25;;;19.00;92.20;;;;;;5059465;28;20154;-35
2022/09/03 02:20:19;;;;;;;1.65;1.02;;;18.90;92.10;;;;;;5061965;28;20037;-34
2022/09/03 02:22:46;;;;;;;1.20;1.08;;;18.90;92.20;;;;;;5060369;28;20477;-33
2022/09/03 02:25:12;;;;;;;1.37;1.20;;;18.90;92.20;;;;;;5059155;28;20558;-31
2022/09/03 02:27:38;;;;;;;3.25;1.02;;;18.80;92.30;;;;;;5061054;28;20086;-31
2022/09/03 02:30:05;;;;;;;1.63;1.30;;;18.80;92.30;;;;;;5064155;28;20024;-38
2022/09/03 02:32:31;;;;;;;1.35;0.90;;;18.80;92.30;;;;;;5061050;28;20468;-37
2022/09/03 02:34:57;;;;;;;1.17;1.13;;;18.70;92.40;;;;;;5060701;28;20488;-41
2022/09/03 02:37:24;;;;;;;15.02;1.20;;;18.70;92.40;;;;;;5063871;28;20029;-38
2022/09/03 02:39:50;;;;;;;1.58;0.90;;;18.70;92.40;;;;;;5065361;28;20024;-33
2022/09/03 02:42:17;;;;;;;7.25;1.02;;;18.70;92.40;;;;;;5056980;28;20035;-31
2022/09/03 02:44:59;;;;;;;1.98;0.90;;;18.70;92.40;;;;;;5060905;28;20056;-35
2022/09/03 02:47:30;;;;;;;2.15;1.00;;;18.60;92.60;;;;;;5060439;28;20511;-31
2022/09/03 02:49:55;;;;;;;11.48;1.20;;;18.60;92.50;;;;;;5056893;28;20028;-39
2022/09/03 02:52:21;;;;;;;1.67;1.02;;;18.60;92.50;;;;;;5059085;28;20044;-38
2022/09/03 02:54:46;;;;;;;5.40;1.15;;;18.60;92.60;;;;;;5064244;28;20025;-30
2022/09/03 02:57:14;;;;;;;8.90;1.63;;;18.60;92.60;;;;;;5064616;28;20548;-34
2022/09/03 02:59:42;;;;;;;;;;;18.50;92.70;;;;;;5064525;28;20104;-33
2022/09/03 03:02:08;;;;;;;2.30;1.20;;;18.50;92.70;;;;;;5065901;28;19920;-31
2022/09/03 03:04:34;;;;;;;2.33;1.45;;;18.50;92.60;;;;;;5068576;28;20028;-33
2022/09/03 03:06:59;;;;;;;3.42;1.33;;;18.40;92.70;;;;;;5063349;28;20029;-33
2022/09/03 03:09:25;;;;;;;3.88;1.15;;;18.40;92.70;;;;;;5066376;28;20103;-36
2022/09/03 03:11:52;;;;;;;4.38;1.33;;;18.40;93.00;;;;;;5063186;28;20528;-36
2022/09/03 03:14:18;;;;;;;1.20;0.98;;;18.30;92.90;;;;;;5063294;28;20548;-37
2022/09/03 03:16:43;;;;;;;4.90;1.13;;;18.30;92.90;;;;;;5060445;28;20103;-31
2022/09/03 03:19:09;;;;;;;2.85;1.17;;;18.30;92.90;;;;;;5062474;28;20029;-32
2022/09/03 03:21:35;;;;;;;1.48;1.23;;;18.20;92.90;;;;;;5064776;28;20747;-33
2022/09/03 03:24:01;;;;;;;1.42;1.25;;;18.20;93.00;;;;;;5060960;28;20489;-38
2022/09/03 03:26:27;;;;;;;1.42;1.33;;;18.20;93.10;;;;;;5062644;28;20496;-37
2022/09/03 03:28:58;;;;;;;1.35;1.20;;;18.20;93.00;;;;;;5067691;28;20098;-33
2022/09/03 03:31:24;;;;;;;1.70;1.25;;;18.30;93.00;;;;;;5063945;28;20476;-38
2022/09/03 03:33:59;;;;;;;0.98;0.90;;;18.20;93.20;;;;;;5059526;28;20511;-38
2022/09/03 03:36:28;;;;;;;3.08;1.13;;;18.10;93.30;;;;;;5060468;28;20028;-42
2022/09/03 03:38:55;;;;;;;2.88;1.17;;;18.00;93.30;;;;;;5062313;28;20029;-37
2022/09/03 03:41:22;;;;;;;;;;;18.10;93.40;;;;;;5064285;28;20500;-42
2022/09/03 03:43:53;;;;;;;1.67;1.05;;;18.00;93.40;;;;;;5062675;28;19931;-40
2022/09/03 03:46:20;;;;;;;1.60;1.00;;;18.00;93.50;;;;;;5065967;28;20487;-37
2022/09/03 03:48:51;;;;;;;2.38;1.10;;;17.90;93.40;;;;;;5064149;28;20034;-38
2022/09/03 03:51:17;;;;;;;2.00;1.00;;;17.90;93.70;;;;;;5062521;28;20023;-36
2022/09/03 03:53:43;;;;;;;4.50;1.30;;;17.90;93.60;;;;;;5057812;28;20405;-35
2022/09/03 03:56:12;;;;;;;3.88;1.20;;;17.90;93.60;;;;;;5066193;28;20016;-35
2022/09/03 03:58:43;;;;;;;3.40;1.20;;;17.80;93.60;;;;;;5063330;28;20565;-37
2022/09/03 04:01:15;;;;;;;2.03;1.40;;;17.80;93.60;;;;;;5063793;28;20098;-34
2022/09/03 04:03:42;;;;;;;1.02;0.93;;;17.80;93.70;;;;;;5060230;28;20033;-34
2022/09/03 04:06:09;;;;;;;8.40;1.90;;;17.80;93.90;;;;;;5063775;28;20507;-32
2022/09/03 04:08:40;;;;;;;3.17;1.13;;;17.70;93.80;;;;;;5064107;28;20057;-32
2022/09/03 04:11:11;;;;;;;1.55;1.20;;;17.80;93.80;;;;;;5062813;28;20024;-33
2022/09/03 04:13:39;;;;;;;1.00;0.90;;;17.80;93.70;;;;;;5063363;28;20031;-34
2022/09/03 04:16:10;;;;;;;1.40;1.30;;;17.80;93.80;;;;;;5064903;28;20025;-37
2022/09/03 04:18:37;;;;;;;4.60;1.45;;;17.80;93.80;;;;;;5062698;28;20074;-41
2022/09/03 04:21:08;;;;;;;0.75;0.70;;;17.80;93.70;;;;;;5060446;28;20119;-35
2022/09/03 04:23:35;;;;;;;3.35;1.88;;;17.80;93.70;;;;;;5062487;28;20515;-30
2022/09/03 04:26:01;;;;;;;1.98;1.00;;;17.80;93.80;;;;;;5062907;28;20031;-35
2022/09/03 04:28:28;;;;;;;2.47;1.30;;;17.80;93.80;;;;;;5064173;28;20078;-37
2022/09/03 04:30:58;;;;;;;2.95;1.23;;;17.80;93.80;;;;;;5066276;28;20423;-44
2022/09/03 04:33:43;;;;;;;2.83;1.63;;;17.80;93.90;;;;;;5065473;28;20012;-38
2022/09/03 04:36:11;;;;;;;1.30;1.10;;;17.80;94.00;;;;;;5064032;28;20075;-36
2022/09/03 04:38:39;;;;;;;1.00;0.80;;;17.70;93.90;;;;;;5064529;28;20111;-64
2022/09/03 04:41:06;;;;;;;;;;;17.70;93.90;;;;;;5061476;28;20064;-39
2022/09/03 04:43:32;;;;;;;5.80;1.48;;;17.80;94.00;;;;;;5069365;28;20315;-39
2022/09/03 04:45:59;;;;;;;3.42;1.20;;;17.80;93.90;;;;;;5065925;28;20021;-37
2022/09/03 04:48:25;;;;;;;1.10;1.00;;;17.70;94.00;;;;;;5062361;28;20480;-40
2022/09/03 04:50:51;;;;;;;1.23;1.10;;;17.70;94.00;;;;;;5067042;28;20028;-39
2022/09/03 04:53:17;;;;;;;1.15;1.02;;;17.70;94.10;;;;;;5062367;28;20028;-39
2022/09/03 04:55:43;;;;;;;1.80;1.30;;;17.70;94.10;;;;;;5066174;28;20056;-39
2022/09/03 04:58:08;;;;;;;1.17;1.08;;;17.70;94.10;;;;;;5062678;28;20466;-35
2022/09/03 05:00:36;;;;;;;2.83;1.10;;;17.70;94.10;;;;;;5064844;28;20032;-33
2022/09/03 05:03:03;;;;;;;;;;;17.70;94.00;;;;;;5061491;28;20024;-38
2022/09/03 05:05:30;;;;;;;1.70;1.20;;;17.80;94.00;;;;;;5065727;28;19999;-39
2022/09/03 05:08:03;;;;;;;1.42;1.10;;;17.70;94.20;;;;;;5062556;28;20119;-34
2022/09/03 05:10:29;;;;;;;1.50;1.40;;;17.70;94.00;;;;;;5064133;28;20017;-32
2022/09/03 05:13:03;;;;;;;1.58;1.25;;;17.70;94.40;;;;;;5061500;28;20548;-32
2022/09/03 05:15:30;;;;;;;1.35;1.25;;;17.70;94.10;;;;;;5062405;28;20024;-34
2022/09/03 05:18:00;;;;;;;4.63;1.33;;;17.60;94.20;;;;;;5062628;28;20029;-39
2022/09/03 05:20:31;;;;;;;1.10;1.00;;;17.60;94.20;;;;;;5063917;28;20086;-31
2022/09/03 05:23:02;;;;;;;1.17;1.00;;;17.60;94.30;;;;;;5062409;28;20051;-37
2022/09/03 05:25:31;;;;;;;2.15;1.27;;;17.60;94.30;;;;;;5058913;28;20024;-33
2022/09/03 05:27:57;;;;;;;1.00;1.00;;;17.50;94.50;;;;;;5064788;28;20111;-34
2022/09/03 05:30:23;;;;;;;2.15;1.10;;;17.60;94.30;;;;;;5059870;28;20121;-35
2022/09/03 05:32:49;;;;;;;1.33;1.10;;;17.60;94.30;;;;;;5064263;28;20024;-39
2022/09/03 05:35:14;;;;;;;1.85;1.17;;;17.60;94.30;;;;;;5062772;28;20507;-36
2022/09/03 05:37:40;;;;;;;1.23;1.00;;;17.60;94.30;;;;;;5063023;28;20477;-32
2022/09/03 05:40:10;;;;;;;7.57;1.17;;;17.60;94.30;;;;;;5062380;28;20028;-32
2022/09/03 05:42:38;;;;;;;3.55;1.35;;;17.60;94.40;;;;;;5063662;28;21067;-36
2022/09/03 05:45:09;;;;;;;1.17;0.85;;;17.60;94.30;;;;;;5062549;28;20025;-32
2022/09/03 05:47:38;;;;;;;1.80;1.20;;;17.60;94.40;;;;;;5065073;28;20078;-34
2022/09/03 05:50:05;;;;;;;1.40;1.30;;;17.60;94.50;;;;;;5062411;28;20099;-49
2022/09/03 05:52:30;;;;;;;1.50;1.38;;;17.60;94.50;;;;;;5058205;28;20032;-38
2022/09/03 05:54:56;;;;;;;3.58;1.33;;;17.60;94.40;;;;;;5055993;28;20473;-31
2022/09/03 05:57:22;;;;;;;1.23;1.10;;;17.70;94.40;;;;;;5062961;28;20025;-33
2022/09/03 05:59:47;;;;;;;1.67;1.38;;;17.70;94.30;;;;;;5061358;28;20063;-34
2022/09/03 06:02:13;;;;;;;2.25;1.52;;;17.80;94.40;;;;;;5060463;28;20350;-34
2022/09/03 06:04:38;;;;;;;4.07;1.77;;;17.80;94.30;;;;;;5060978;28;20104;-32
2022/09/03 06:07:04;;;;;;;3.58;1.60;;;17.80;94.40;;;;;;5063901;28;20028;-37
2022/09/03 06:09:29;;;;;;;3.95;1.40;;;17.90;94.40;;;;;;5062456;28;20043;-32
2022/09/03 06:11:55;;;;;;;1.95;1.55;;;17.90;94.20;;;;;;5060867;28;20392;-35
2022/09/03 06:14:21;;;;;;;2.70;1.23;;;17.90;94.20;;;;;;5058762;28;20096;-32
2022/09/03 06:16:48;;;;;;;2.88;1.65;;;18.00;94.20;;;;;;5062924;28;20028;-31
2022/09/03 06:19:15;;;;;;;2.87;1.70;;;18.00;94.20;;;;;;5061325;28;20097;-36
2022/09/03 06:21:42;;;;;;;2.10;1.55;;;18.10;94.20;;;;;;5061047;28;20551;-38
2022/09/03 06:24:28;;;;;;;4.25;1.45;;;18.10;94.00;;;;;;5062614;28;20491;-37
2022/09/03 06:26:54;;;;;;;1.15;1.08;;;18.10;93.90;;;;;;5064651;28;20028;-35
2022/09/03 06:29:20;;;;;;;1.70;1.20;;;18.20;93.90;;;;;;5067308;28;20071;-32
2022/09/03 06:31:50;;;;;;;3.75;1.27;;;18.30;93.90;;;;;;5066816;28;20040;-36
2022/09/03 06:34:18;;;;;;;3.33;1.38;;;18.30;93.70;;;;;;5061778;28;20424;-38
2022/09/03 06:36:45;;;;;;;5.47;1.35;;;18.40;93.80;;;;;;5068122;28;20017;-38
2022/09/03 06:39:10;;;;;;;1.10;0.95;;;18.40;93.80;;;;;;5068123;28;20035;-40
2022/09/03 06:41:36;;;;;;;0.88;0.88;;;18.50;93.90;;;;;;5066970;28;20017;-39
2022/09/03 06:44:10;;;;;;;1.30;1.20;;;18.50;93.70;;;;;;5063068;28;20052;-40
2022/09/03 06:46:37;;;;;;;2.35;1.50;;;18.60;93.60;;;;;;5070370;28;20107;-40
2022/09/03 06:49:03;;;;;;;3.20;1.70;;;18.60;93.60;;;;;;5072053;28;20070;-40
2022/09/03 06:51:31;;;;;;;1.48;1.38;;;18.60;93.70;;;;;;5071924;28;20705;-37
2022/09/03 06:54:05;;;;;;;2.08;1.27;;;18.70;93.70;;;;;;5066286;28;20020;-35
2022/09/03 06:56:32;;;;;;;4.60;1.27;;;18.70;93.70;;;;;;5073002;28;20020;-38
2022/09/03 06:59:02;;;;;;;2.22;1.25;;;18.80;93.70;;;;;;5075590;28;20029;-41
2022/09/03 07:01:32;;;;;;;1.27;1.00;;;18.80;93.80;;;;;;5071118;28;20044;-38
2022/09/03 07:04:03;;;;;;;3.80;1.20;;;18.90;93.60;;;;;;5067949;28;20410;-36
2022/09/03 07:06:38;;;;;;;1.63;1.13;;;19.00;93.50;;;;;;5071112;28;20102;-33
2022/09/03 07:09:09;;;;;;;6.53;1.10;;;19.10;93.50;;;;;;5067825;28;20043;-38
2022/09/03 07:11:36;;;;;;;2.92;1.58;;;19.20;93.70;;;;;;5058671;28;20029;-32
2022/09/03 07:14:03;;;;;;;3.28;1.20;;;19.40;93.50;;;;;;5066436;28;20047;-36
2022/09/03 07:16:34;;;;;;;12.68;1.17;;;19.50;93.30;;;;;;5067856;28;20499;-35
2022/09/03 07:19:00;;;;;;;2.15;1.17;;;19.60;93.40;;;;;;5066220;28;20034;-36
2022/09/03 07:21:28;;;;;;;1.20;1.10;;;19.70;93.20;;;;;;5070320;28;20123;-38
2022/09/03 07:23:54;;;;;;;1.45;1.05;;;19.80;93.20;;;;;;5070685;28;20411;-38
2022/09/03 07:26:31;;;;;;;1.53;1.03;;;20.00;93.10;;;;;;5059443;28;20449;-35
2022/09/03 07:28:59;;;;;;;0.70;0.70;;;20.20;93.20;;;;;;5061146;28;20326;-39
2022/09/03 07:31:38;;;;;;;0.77;0.75;;;20.40;92.70;;;;;;5070607;28;20111;-38
2022/09/03 07:34:09;;;;;;;1.67;0.95;;;20.50;92.80;;;;;;5067651;28;20503;-38
2022/09/03 07:36:37;;;;;;;1.65;1.00;;;20.70;92.60;;;;;;5063362;28;20137;-40
2022/09/03 07:39:10;;;;;;;0.90;0.77;;;20.80;92.30;;;;;;5068120;28;20024;-40
2022/09/03 07:41:36;;;;;;;1.77;1.00;;;21.00;92.10;;;;;;5065311;28;20017;-41
2022/09/03 07:44:04;;;;;;;3.78;0.80;;;21.00;91.90;;;;;;5065170;28;20103;-38
2022/09/03 07:46:32;;;;;;;1.70;0.93;;;21.10;92.30;;;;;;5067836;28;20472;-39
2022/09/03 07:49:01;;;;;;;3.83;1.05;;;21.30;92.00;;;;;;5066899;28;20416;-38
2022/09/03 07:51:29;;;;;;;5.80;1.38;;;21.50;91.70;;;;;;5065248;28;20032;-37
2022/09/03 07:54:00;;;;;;;1.65;1.25;;;21.60;91.30;;;;;;5064953;28;20040;-41
2022/09/03 07:56:29;;;;;;;0.93;0.80;;;21.70;91.00;;;;;;5065875;28;20024;-38
2022/09/03 07:58:55;;;;;;;2.05;1.00;;;21.70;90.90;;;;;;5067325;28;20086;-38
2022/09/03 08:01:22;;;;;;;1.15;1.02;;;21.60;90.80;;;;;;5061877;28;21153;-38
2022/09/03 08:03:51;;;;;;;0.80;0.80;;;21.60;91.10;;;;;;5055950;28;20028;-39
2022/09/03 08:06:22;;;;;;;2.92;1.02;;;21.60;91.20;;;;;;5062630;28;20033;-40
2022/09/03 08:08:48;;;;;;;1.50;1.00;;;21.70;91.30;;;;;;5064854;28;20472;-40
2022/09/03 08:11:20;;;;;;;2.17;1.08;;;21.90;91.00;;;;;;5066559;28;20017;-40
2022/09/03 08:13:53;;;;;;;3.40;1.00;;;22.10;90.90;;;;;;5059898;28;20028;-39
2022/09/03 08:16:19;;;;;;;2.65;1.30;;;22.20;90.80;;;;;;5060852;28;20507;-39
2022/09/03 08:18:46;;;;;;;5.80;1.02;;;22.20;90.70;;;;;;5063008;28;20562;-39
2022/09/03 08:21:17;;;;;;;1.93;1.00;;;22.20;91.10;;;;;;5066293;28;20052;-39
2022/09/03 08:23:44;;;;;;;6.35;1.33;;;22.30;90.90;;;;;;5073405;28;20468;-36
2022/09/03 08:26:11;;;;;;;2.67;1.30;;;22.50;90.40;;;;;;5068407;28;20536;-37
2022/09/03 08:28:37;;;;;;;7.47;1.13;;;22.60;90.50;;;;;;5065264;28;20028;-41
2022/09/03 08:31:21;;;;;;;1.50;0.70;;;22.70;90.50;;;;;;5070334;28;20480;-40
2022/09/03 08:33:49;;;;;;;2.70;0.88;;;22.80;90.70;;;;;;5067724;28;20468;-40
2022/09/03 08:36:17;;;;;;;3.00;1.00;;;23.00;90.80;;;;;;5064555;28;20029;-39
2022/09/03 08:38:45;;;;;;;4.70;1.08;;;23.10;90.60;;;;;;5066264;28;20039;-38
2022/09/03 08:41:11;;;;;;;;;;;23.30;90.60;;;;;;5063337;28;20333;-41
2022/09/03 08:43:42;;;;;;;0.80;0.80;;;23.40;90.20;;;;;;5063846;28;19921;-47
2022/09/03 08:46:08;;;;;;;1.02;0.90;;;23.50;89.70;;;;;;5059012;28;20036;-38
2022/09/03 08:48:34;;;;;;;0.60;0.60;;;23.50;89.70;;;;;;5058983;28;20032;-38
2022/09/03 08:51:03;;;;;;;0.88;0.77;;;23.40;89.50;;;;;;5068388;28;20082;-39
2022/09/03 08:53:47;;;;;;;0.75;0.73;;;23.50;89.70;;;;;;5061517;28;20103;-58
2022/09/03 08:56:23;;;;;;;3.55;1.40;;;23.60;89.40;;;;;;5064417;28;20561;-39
2022/09/03 08:58:48;;;;;;;2.53;1.00;;;23.70;89.40;;;;;;5062046;28;20035;-36
2022/09/03 09:01:23;;;;;;;7.68;0.65;;;23.80;89.70;;;;;;5058632;28;20040;-42
2022/09/03 09:03:55;;;;;;;0.68;0.68;;;23.90;89.50;;;;;;5061777;28;20033;-50
2022/09/03 09:06:47;;;;;;;1.95;0.95;;;24.00;88.90;;;;;;5063117;28;20032;-44
2022/09/03 09:09:34;;;;;;;2.00;1.05;;;24.10;89.80;;;;;;5064527;28;20074;-37
2022/09/03 09:12:18;;;;;;;1.40;1.10;;;24.20;88.40;;;;;;5058511;28;20472;-38
2022/09/03 09:15:09;;;;;;;2.13;0.70;;;24.30;89.10;;;;;;5060040;28;20025;-40
2022/09/03 09:17:59;;;;;;;1.80;0.80;;;24.40;88.80;;;;;;5064844;28;20094;-40
2022/09/03 09:20:43;;;;;;;0.95;0.85;;;24.60;87.90;;;;;;5064057;28;20119;-38
2022/09/03 09:23:28;;;;;;;1.55;1.10;;;24.70;88.40;;;;;;5061365;28;20029;-40
2022/09/03 09:25:56;;;;;;;0.60;0.57;;;24.80;87.40;;;;;;5066351;28;20060;-35
2022/09/03 09:28:32;;;;;;;1.80;0.70;;;24.80;87.80;;;;;;5059253;28;20365;-36
2022/09/03 09:31:00;;;;;;;2.90;0.90;;;24.80;88.10;;;;;;5058443;28;20025;-38
2022/09/03 09:33:25;;;;;;;1.00;0.90;;;24.90;87.90;;;;;;5061327;28;20044;-38
2022/09/03 09:35:51;;;;;;;2.67;0.85;;;25.10;89.20;;;;;;5066418;28;20632;-47
2022/09/03 09:38:31;;;;;;;2.88;0.80;;;25.20;88.30;;;;;;5066909;28;20049;-39
2022/09/03 09:41:18;;;;;;;1.60;0.77;;;25.50;87.60;;;;;;5063193;28;20480;-38
2022/09/03 09:43:46;;;;;;;;;;;25.60;88.00;;;;;;5070260;28;20476;-39
2022/09/03 09:46:24;;;;;;;1.90;1.20;;;25.70;88.00;;;;;;5064895;28;19915;-44
2022/09/03 09:48:56;;;;;;;1.33;1.00;;;25.80;87.60;;;;;;5067493;28;20059;-39
2022/09/03 09:51:25;;;;;;;5.75;0.90;;;26.00;87.80;;;;;;5061388;28;20078;-39
2022/09/03 09:54:26;;;;;;;2.70;1.55;;;26.20;86.80;;;;;;5064356;28;20138;-38
2022/09/03 09:57:02;;;;;;;3.38;0.90;;;26.20;87.00;;;;;;5061838;28;20048;-35
2022/09/03 09:59:28;;;;;;;1.30;0.90;;;26.40;87.20;;;;;;5062612;28;20031;-37
2022/09/03 10:02:14;;;;;;;3.45;1.20;;;26.40;86.40;;;;;;5059119;28;20048;-37
2022/09/03 10:04:44;;;;;;;2.17;0.80;;;26.50;86.40;;;;;;5062723;28;20362;-32
2022/09/03 10:07:31;;;;;;;0.75;0.75;;;26.50;87.20;;;;;;5063398;28;20032;-37
2022/09/03 10:10:13;;;;;;;1.70;0.93;;;26.70;86.50;;;;;;5063334;28;20064;-42
2022/09/03 10:13:00;;;;;;;1.27;1.10;;;26.80;86.40;;;;;;5062559;28;20013;-33
2022/09/03 10:15:41;;;;;;;4.82;1.17;;;26.80;86.60;;;;;;5060784;28;20052;-37
2022/09/03 10:18:28;;;;;;;1.70;0.90;;;27.20;86.20;;;;;;5058037;28;20112;-40
2022/09/03 10:21:10;;;;;;;2.03;0.90;;;27.50;85.50;;;;;;5052631;28;20547;-32
2022/09/03 10:24:15;;;;;;;1.98;0.88;;;27.70;85.00;;;;;;5054908;28;20033;-36
2022/09/03 10:26:44;;;;;;;1.20;0.93;;;27.90;85.70;;;;;;5056129;28;20564;-36
2022/09/03 10:29:11;;;;;;;1.70;0.73;;;28.00;84.50;;;;;;5066830;28;20048;-42
2022/09/03 10:32:27;;;;;;;3.60;0.90;;;28.20;82.70;;;;;;5064221;28;20029;-40
2022/09/03 10:35:03;;;;;;;0.90;0.55;;;28.40;82.00;;;;;;5042136;28;20641;-41
2022/09/03 10:37:39;;;;;;;2.72;0.90;;;28.40;82.90;;;;;;5066854;28;20044;-40
2022/09/03 10:40:30;;;;;;;3.72;0.70;;;28.40;82.50;;;;;;5058740;28;20106;-41
2022/09/03 10:43:12;;;;;;;2.78;0.98;;;28.60;82.30;;;;;;5070654;28;20110;-49
2022/09/03 10:45:46;;;;;;;4.38;1.00;;;28.50;81.80;;;;;;5062513;28;20575;-41
2022/09/03 10:48:20;;;;;;;1.10;0.88;;;28.30;82.70;;;;;;5059857;28;20439;-40
2022/09/03 10:51:17;;;;;;;6.95;1.77;;;28.20;82.90;;;;;;5067546;28;20024;-37
2022/09/03 10:53:52;;;;;;;1.60;0.98;;;28.20;83.00;;;;;;5053313;28;20037;-40
2022/09/03 10:56:38;;;;;;;0.88;0.73;;;28.20;82.10;;;;;;5062168;28;20031;-35
2022/09/03 10:59:29;;;;;;;1.45;0.60;;;28.30;82.60;;;;;;5063209;28;20028;-35
2022/09/03 11:01:55;;;;;;;0.93;0.88;;;28.20;82.90;;;;;;5064751;28;20032;-37
2022/09/03 11:04:43;;;;;;;1.95;0.82;;;28.20;82.10;;;;;;5060950;28;20028;-33
2022/09/03 11:07:15;;;;;;;1.00;1.00;;;28.20;82.00;;;;;;5059575;28;20036;-39
2022/09/03 11:09:56;;;;;;;0.63;0.60;;;28.20;81.70;;;;;;5058002;28;20433;-37
2022/09/03 11:12:24;;;;;;;2.42;1.13;;;28.00;82.40;;;;;;5069427;28;20033;-35
2022/09/03 11:14:56;;;;;;;0.80;0.75;;;27.90;83.90;;;;;;5057382;28;20025;-35
2022/09/03 11:17:26;;;;;;;5.20;0.82;;;28.00;83.10;;;;;;5063973;28;20024;-31
2022/09/03 11:20:07;;;;;;;4.15;1.10;;;28.10;82.80;;;;;;5056579;28;20485;-39
2022/09/03 11:22:33;;;;;;;5.18;1.50;;;28.20;82.60;;;;;;5059994;28;20032;-37
2022/09/03 11:25:01;;;;;;;3.75;0.80;;;28.40;81.90;;;;;;5062528;28;20430;-36
2022/09/03 11:27:49;;;;;;;3.08;0.93;;;28.30;82.60;;;;;;5059109;28;20487;-43
2022/09/03 11:30:36;;;;;;;1.08;1.00;;;28.40;83.10;;;;;;5061159;28;20041;-39
2022/09/03 11:33:08;;;;;;;5.70;1.00;;;28.50;83.40;;;;;;5056667;28;20025;-40
2022/09/03 11:35:34;;;;;;;0.95;0.80;;;28.70;83.50;;;;;;5058989;28;20328;-42
2022/09/03 11:38:22;;;;;;;4.88;0.75;;;28.90;83.50;;;;;;5054849;28;20053;-38
2022/09/03 11:40:59;;;;;;;1.63;1.00;;;28.80;82.40;;;;;;5057136;28;21064;-39
2022/09/03 11:43:32;;;;;;;;;;;28.70;83.50;;;;;;5067984;28;20032;-40
2022/09/03 11:46:03;;;;;;;2.50;0.80;;;28.70;82.90;;;;;;5062316;28;19962;-43
2022/09/03 11:48:38;;;;;;;1.00;0.90;;;28.80;82.80;;;;;;5065294;28;20032;-37
2022/09/03 11:51:04;;;;;;;3.58;0.85;;;28.80;82.70;;;;;;5067843;28;20576;-38
2022/09/03 11:53:35;;;;;;;0.88;0.80;;;28.90;82.00;;;;;;5067889;28;20024;-39
2022/09/03 11:56:03;;;;;;;2.80;1.85;;;28.80;81.90;;;;;;5060967;28;20033;-42
2022/09/03 11:58:32;;;;;;;1.65;0.88;;;28.80;82.20;;;;;;5066752;28;20052;-45
2022/09/03 12:01:21;;;;;;;0.70;0.70;;;28.90;81.90;;;;;;5068389;28;20113;-39
2022/09/03 12:03:57;;;;;;;2.13;0.70;;;29.00;81.80;;;;;;5070666;28;20104;-41
2022/09/03 12:06:36;;;;;;;1.75;0.95;;;29.00;81.60;;;;;;5071317;28;20472;-40
2022/09/03 12:09:05;;;;;;;3.72;0.82;;;28.90;81.90;;;;;;5063664;28;20063;-40
2022/09/03 12:11:37;;;;;;;2.05;1.55;;;28.90;82.20;;;;;;5058075;28;20477;-39
2022/09/03 12:14:11;;;;;;;4.30;1.05;;;29.00;81.70;;;;;;5054074;28;20075;-38
2022/09/03 12:16:55;;;;;;;3.63;1.10;;;29.00;82.00;;;;;;5068844;28;20032;-38
2022/09/03 12:19:36;;;;;;;2.13;0.73;;;29.10;82.30;;;;;;5069022;28;20024;-38
2022/09/03 12:22:04;;;;;;;2.13;0.75;;;29.10;81.30;;;;;;5068023;28;20039;-40
2022/09/03 12:24:32;;;;;;;1.00;0.90;;;29.10;81.40;;;;;;5068728;28;20488;-41
2022/09/03 12:26:59;;;;;;;1.83;0.95;;;29.10;80.80;;;;;;5063249;28;20025;-40
2022/09/03 12:29:27;;;;;;;7.50;0.63;;;29.00;80.80;;;;;;5060364;28;20024;-39
2022/09/03 12:31:55;;;;;;;1.15;0.77;;;28.90;80.70;;;;;;5063917;28;20021;-39
2022/09/03 12:34:39;;;;;;;3.53;1.10;;;29.00;81.10;;;;;;5067346;28;20055;-40
2022/09/03 12:37:19;;;;;;;5.28;1.00;;;28.80;81.60;;;;;;5067381;28;20089;-45
2022/09/03 12:39:54;;;;;;;4.85;1.20;;;28.80;81.50;;;;;;5054341;28;20029;-41
2022/09/03 12:42:27;;;;;;;5.30;0.82;;;28.90;80.80;;;;;;5053684;28;20200;-39
2022/09/03 12:44:53;;;;;;;1.20;1.00;;;28.90;80.60;;;;;;5068295;28;20404;-41
2022/09/03 12:50:13;;;;;;;0.70;0.70;;;28.90;82.60;;;;;;5061297;28;20079;-41
2022/09/03 12:52:56;;;;;;;0.90;0.90;;;29.10;80.70;;;;;;5052731;28;20029;-41
2022/09/03 12:55:42;;;;;;;3.33;1.13;;;29.20;80.60;;;;;;5066403;28;20107;-40
2022/09/03 12:58:15;;;;;;;2.37;0.80;;;29.20;81.30;;;;;;5064412;28;20025;-45
2022/09/03 13:01:07;;;;;;;0.82;0.80;;;29.30;81.40;;;;;;5072100;28;20708;-41
2022/09/03 13:03:56;;;;;;;2.03;1.00;;;29.40;80.20;;;;;;5069270;28;20090;-38
2022/09/03 13:06:33;;;;;;;1.40;0.75;;;29.20;81.10;;;;;;5064126;28;20028;-38
2022/09/03 13:09:05;;;;;;;1.73;0.93;;;29.10;81.30;;;;;;5054303;28;20509;-41
2022/09/03 13:11:38;;;;;;;11.77;1.23;;;29.10;81.00;;;;;;5061430;28;20025;-40
2022/09/03 13:14:10;;;;;;;1.85;1.08;;;29.10;81.60;;;;;;5062915;28;20547;-38
2022/09/03 13:16:41;;;;;;;2.47;1.40;;;29.10;81.60;;;;;;5061493;28;20474;-37
2022/09/03 13:19:37;;;;;;;1.65;0.82;;;29.30;81.50;;;;;;5065115;28;20029;-41
2022/09/03 13:22:30;;;;;;;;;;;29.60;81.00;;;;;;5063433;28;20108;-51